Time;durP1;ratioP1;P1;durP2;ratioP2;P2;SDS_P1;SDS_P2;PMS_P1;PMS_P2;Temp;Humidity;BMP_temperature;BMP_pressure;BME280_temperature;BME280_humidity;BME280_pressure;Samples;Min_cycle;Max_cycle;Signal;HPM_P1;HPM_P2
2022/01/06 00:00:16;;;;;;;10.70;4.55;;;;;;;15.82;76.00;101422.06;5030635;28;20481;-75
2022/01/06 00:02:45;;;;;;;11.20;4.68;;;;;;;15.81;76.11;101423.88;5032639;28;20103;-74
2022/01/06 00:05:12;;;;;;;11.23;5.38;;;;;;;15.78;76.26;101418.53;5047044;28;20489;-74
2022/01/06 00:07:40;;;;;;;11.63;4.03;;;;;;;15.77;76.41;101418.50;5046937;28;20065;-74
2022/01/06 00:10:12;;;;;;;15.55;4.75;;;;;;;15.77;76.39;101414.09;5048958;28;20045;-74
2022/01/06 00:12:46;;;;;;;10.02;3.97;;;;;;;15.74;76.34;101414.09;5048912;28;20516;-74
2022/01/06 00:15:29;;;;;;;9.00;3.57;;;;;;;15.78;76.13;101412.31;5047672;28;20574;-74
2022/01/06 00:18:16;;;;;;;10.05;3.85;;;;;;;15.72;76.10;101407.84;5049188;28;20041;-74
2022/01/06 00:23:33;;;;;;;10.18;4.00;;;;;;;15.79;76.13;101411.44;5067342;28;20066;-74
2022/01/06 00:26:02;;;;;;;9.05;4.65;;;;;;;15.82;76.32;101419.41;5063687;28;20040;-74
2022/01/06 00:28:30;;;;;;;11.95;4.57;;;;;;;15.82;76.53;101406.09;5048129;28;20044;-74
2022/01/06 00:30:59;;;;;;;13.10;4.65;;;;;;;15.85;76.77;101409.69;5043179;28;20053;-76
2022/01/06 00:33:30;;;;;;;12.07;5.10;;;;;;;15.89;76.85;101411.47;5048260;28;20068;-75
2022/01/06 00:35:59;;;;;;;10.88;4.82;;;;;;;15.85;77.04;101408.78;5038242;28;20542;-75
2022/01/06 00:38:27;;;;;;;8.30;4.55;;;;;;;15.86;77.26;101415.91;5036393;28;20037;-75
2022/01/06 00:40:57;;;;;;;8.77;3.67;;;;;;;15.83;77.55;101407.88;5046897;28;20047;-75
2022/01/06 00:43:24;;;;;;;10.50;4.82;;;;;;;15.79;77.58;101401.69;5047484;28;20044;-75
2022/01/06 00:45:52;;;;;;;7.38;4.07;;;;;;;15.80;77.89;101411.44;5038589;28;20120;-77
2022/01/06 00:48:21;;;;;;;12.63;4.50;;;;;;;15.84;77.93;101404.34;5046628;28;20036;-75
2022/01/06 00:50:49;;;;;;;12.85;4.25;;;;;;;15.80;78.11;101397.25;5035212;28;20132;-75
2022/01/06 00:53:16;;;;;;;12.27;4.20;;;;;;;15.77;78.07;101394.56;5028708;28;20396;-74
2022/01/06 00:55:44;;;;;;;12.30;4.60;;;;;;;15.81;77.77;101401.69;5031463;28;20046;-74
2022/01/06 00:58:12;;;;;;;8.30;3.80;;;;;;;15.81;77.58;101385.72;5042840;28;20049;-75
2022/01/06 01:00:40;;;;;;;9.95;4.25;;;;;;;15.83;77.48;101391.91;5034908;28;20129;-75
2022/01/06 01:03:12;;;;;;;12.48;5.25;;;;;;;15.84;77.42;101405.25;5048168;28;20041;-75
2022/01/06 01:05:42;;;;;;;8.77;3.40;;;;;;;15.80;77.47;101408.78;5044016;28;20041;-74
2022/01/06 01:08:11;;;;;;;7.78;3.58;;;;;;;15.79;77.43;101400.78;5033502;28;20045;-74
2022/01/06 01:10:39;;;;;;;10.35;4.15;;;;;;;15.79;77.41;101401.69;5039158;28;20092;-74
2022/01/06 01:13:10;;;;;;;11.52;3.42;;;;;;;15.80;77.44;101405.22;5042507;28;20465;-75
2022/01/06 01:15:45;;;;;;;6.82;3.38;;;;;;;15.72;77.59;101407.84;5043097;28;20076;-74
2022/01/06 01:18:14;;;;;;;11.68;4.07;;;;;;;15.71;77.66;101411.38;5029337;28;20045;-74
2022/01/06 01:20:43;;;;;;;13.18;4.25;;;;;;;15.69;77.62;101404.28;5030058;28;20049;-74
2022/01/06 01:23:10;;;;;;;10.90;3.47;;;;;;;15.63;77.66;101407.78;5027527;28;20044;-74
2022/01/06 01:25:38;;;;;;;11.07;3.40;;;;;;;15.62;77.89;101402.50;5036291;28;20126;-74
2022/01/06 01:28:06;;;;;;;8.00;3.55;;;;;;;15.63;78.04;101402.47;5046140;28;20052;-75
2022/01/06 01:30:41;;;;;;;12.63;4.63;;;;;;;15.66;77.87;101394.50;5033774;28;20463;-74
2022/01/06 01:33:15;;;;;;;7.40;3.60;;;;;;;15.69;77.86;101388.28;5050122;28;20043;-75
2022/01/06 01:35:44;;;;;;;;;;;;;;;15.74;77.58;101392.78;5046560;28;20107;-74
2022/01/06 01:38:12;;;;;;;9.50;3.50;;;;;;;15.71;77.45;101384.78;5046809;28;19971;-75
2022/01/06 01:40:40;;;;;;;8.65;3.80;;;;;;;15.71;77.37;101382.09;5047385;28;20090;-75
2022/01/06 01:43:07;;;;;;;9.88;3.97;;;;;;;15.68;77.48;101381.22;5050957;28;20045;-75
2022/01/06 01:45:39;;;;;;;10.52;3.35;;;;;;;15.67;77.38;101383.00;5050528;28;20064;-75
2022/01/06 01:48:09;;;;;;;10.38;4.50;;;;;;;15.69;77.42;101382.97;5050238;28;20777;-75
2022/01/06 01:50:36;;;;;;;9.60;3.70;;;;;;;15.71;77.13;101379.44;5049575;28;20085;-74
2022/01/06 01:53:05;;;;;;;8.07;4.05;;;;;;;15.72;77.11;101377.69;5051252;28;20120;-75
2022/01/06 01:55:34;;;;;;;10.23;3.80;;;;;;;15.67;77.13;101361.69;5051125;28;20059;-75
2022/01/06 01:58:02;;;;;;;12.23;3.70;;;;;;;15.69;77.12;101362.56;5051319;28;20037;-74
2022/01/06 02:00:32;;;;;;;11.25;3.80;;;;;;;15.71;76.96;101368.81;5051636;28;20152;-75
2022/01/06 02:03:00;;;;;;;10.98;4.53;;;;;;;15.69;76.74;101356.34;5051380;28;20066;-74
2022/01/06 02:05:28;;;;;;;9.75;3.15;;;;;;;15.67;76.57;101359.03;5046730;28;20049;-74
2022/01/06 02:07:58;;;;;;;9.65;3.40;;;;;;;15.69;76.43;101359.00;5049901;28;20048;-74
2022/01/06 02:10:28;;;;;;;7.03;3.60;;;;;;;15.66;76.52;101359.91;5054064;28;20073;-74
2022/01/06 02:12:57;;;;;;;11.30;4.22;;;;;;;15.65;76.49;101355.47;5048009;28;20172;-75
2022/01/06 02:15:25;;;;;;;8.90;2.95;;;;;;;15.65;76.44;101351.91;5050735;28;20461;-74
2022/01/06 02:17:53;;;;;;;5.63;3.05;;;;;;;15.64;76.35;101351.03;5051046;28;20120;-75
2022/01/06 02:20:24;;;;;;;6.90;2.95;;;;;;;15.64;76.35;101353.69;5050777;28;20037;-75
2022/01/06 02:22:52;;;;;;;9.38;2.78;;;;;;;15.63;76.48;101345.69;5050100;28;20037;-75
2022/01/06 02:25:22;;;;;;;7.95;3.65;;;;;;;15.61;76.34;101342.16;5049999;28;20041;-75
2022/01/06 02:27:53;;;;;;;11.20;4.22;;;;;;;15.60;76.37;101332.38;5051180;28;20493;-75
2022/01/06 02:30:23;;;;;;;12.68;3.25;;;;;;;15.56;76.13;101339.44;5050909;28;20047;-75
2022/01/06 02:32:52;;;;;;;4.80;2.25;;;;;;;15.54;76.00;101347.44;5050600;28;20055;-75
2022/01/06 02:35:23;;;;;;;6.13;3.00;;;;;;;15.52;75.96;101343.88;5051050;28;20068;-76
2022/01/06 02:37:51;;;;;;;6.15;3.30;;;;;;;15.51;76.01;101338.50;5048846;28;20124;-75
2022/01/06 02:40:21;;;;;;;8.27;3.45;;;;;;;15.47;76.01;101342.94;5049189;28;20044;-75
2022/01/06 02:42:52;;;;;;;9.82;3.25;;;;;;;15.44;76.14;101339.34;5049306;28;20052;-75
2022/01/06 02:45:21;;;;;;;8.18;3.33;;;;;;;15.41;76.22;101344.69;5051027;28;20036;-75
2022/01/06 02:48:10;;;;;;;5.53;2.20;;;;;;;15.34;76.44;101333.13;5048403;28;20049;-75
2022/01/06 02:50:41;;;;;;;8.13;3.13;;;;;;;15.35;76.36;101339.34;5049038;28;20464;-75
2022/01/06 02:53:10;;;;;;;8.40;2.88;;;;;;;15.34;76.53;101343.75;5049689;28;20041;-75
2022/01/06 02:55:41;;;;;;;6.45;2.13;;;;;;;15.39;76.45;101346.44;5065373;28;20049;-75
2022/01/06 02:58:09;;;;;;;5.70;2.40;;;;;;;15.36;76.44;101349.09;5052753;28;20049;-75
2022/01/06 03:00:37;;;;;;;6.15;2.50;;;;;;;15.34;76.46;101354.41;5049863;28;20428;-75
2022/01/06 03:03:05;;;;;;;6.95;2.95;;;;;;;15.31;76.68;101359.69;5028843;28;20045;-75
2022/01/06 03:05:32;;;;;;;6.90;2.78;;;;;;;15.29;76.86;101365.91;5042449;28;20456;-75
2022/01/06 03:08:02;;;;;;;8.13;2.78;;;;;;;15.29;76.90;101355.25;5049802;28;20135;-75
2022/01/06 03:10:31;;;;;;;13.52;3.28;;;;;;;15.22;77.04;101359.66;5049334;28;20558;-75
2022/01/06 03:12:59;;;;;;;10.95;3.22;;;;;;;15.20;77.16;101360.50;5050438;28;20048;-75
2022/01/06 03:15:26;;;;;;;7.95;2.40;;;;;;;15.18;77.19;101368.47;5050056;28;20044;-75
2022/01/06 03:17:56;;;;;;;10.23;3.28;;;;;;;15.17;77.52;101366.69;5049321;28;20523;-75
2022/01/06 03:20:25;;;;;;;7.32;2.80;;;;;;;15.12;77.65;101361.34;5050438;28;20037;-75
2022/01/06 03:22:55;;;;;;;9.07;3.35;;;;;;;15.09;77.82;101374.63;5050180;28;20087;-74
2022/01/06 03:25:25;;;;;;;11.80;3.47;;;;;;;15.08;77.77;101371.97;5048257;28;20525;-75
2022/01/06 03:27:53;;;;;;;10.80;3.47;;;;;;;15.02;77.65;101374.59;5049865;28;20493;-75
2022/01/06 03:30:23;;;;;;;11.68;3.25;;;;;;;15.00;77.73;101368.34;5049004;28;20507;-75
2022/01/06 03:32:52;;;;;;;9.90;3.30;;;;;;;14.98;77.64;101375.41;5060391;28;20055;-75
2022/01/06 03:35:22;;;;;;;10.98;2.88;;;;;;;14.97;77.67;101373.63;5049729;28;20128;-75
2022/01/06 03:37:50;;;;;;;14.25;4.75;;;;;;;14.97;77.47;101378.94;5048133;28;20440;-75
2022/01/06 03:40:17;;;;;;;9.50;4.55;;;;;;;14.96;77.38;101379.84;5049413;28;20033;-75
2022/01/06 03:42:48;;;;;;;6.68;2.83;;;;;;;14.95;77.39;101371.00;5049618;28;20053;-74
2022/01/06 03:45:19;;;;;;;7.38;2.85;;;;;;;14.90;77.56;101364.72;5049496;28;20037;-75
2022/01/06 03:47:47;;;;;;;12.40;3.47;;;;;;;14.87;78.06;101362.06;5052201;28;20045;-75
2022/01/06 03:50:17;;;;;;;9.25;3.30;;;;;;;14.90;77.89;101359.41;5040026;28;20124;-75
2022/01/06 03:52:45;;;;;;;8.00;3.33;;;;;;;14.88;78.13;101355.88;5048465;28;20103;-75
2022/01/06 03:55:17;;;;;;;9.38;2.70;;;;;;;14.87;78.10;101356.75;5047762;28;20044;-75
2022/01/06 03:57:48;;;;;;;8.15;2.67;;;;;;;14.86;78.15;101359.38;5047412;28;20737;-75
2022/01/06 04:00:18;;;;;;;13.05;3.03;;;;;;;14.82;78.32;101358.47;5048790;28;20136;-75
2022/01/06 04:02:46;;;;;;;11.10;3.17;;;;;;;14.82;78.47;101360.25;5064636;28;20052;-75
2022/01/06 04:05:15;;;;;;;10.13;4.53;;;;;;;14.82;78.72;101370.88;5047038;28;20135;-75
2022/01/06 04:07:43;;;;;;;6.65;2.17;;;;;;;14.80;78.60;101367.31;5049366;28;20033;-75
2022/01/06 04:10:12;;;;;;;8.40;3.38;;;;;;;14.79;78.80;101374.38;5048203;28;20450;-75
2022/01/06 04:12:40;;;;;;;12.55;3.38;;;;;;;14.79;78.75;101374.38;5064552;28;20048;-75
2022/01/06 04:15:13;;;;;;;7.18;3.22;;;;;;;14.77;78.58;101370.81;5028385;28;20099;-75
2022/01/06 04:17:42;;;;;;;8.18;3.30;;;;;;;14.73;78.84;101375.22;5037651;28;20465;-75
2022/01/06 04:20:12;;;;;;;13.07;4.50;;;;;;;14.70;78.67;101379.66;5047544;28;20125;-75
2022/01/06 04:22:40;;;;;;;11.18;4.13;;;;;;;14.67;78.68;101387.56;5049352;28;20045;-75
2022/01/06 04:25:08;;;;;;;14.50;2.97;;;;;;;14.62;78.68;101382.22;5048575;28;20493;-75
2022/01/06 04:27:37;;;;;;;11.98;3.08;;;;;;;14.61;78.55;101379.56;5048988;28;20146;-75
2022/01/06 04:30:05;;;;;;;8.60;5.57;;;;;;;14.61;78.32;101382.22;5038740;28;20132;-75
2022/01/06 04:32:34;;;;;;;12.57;5.82;;;;;;;14.62;78.23;101378.69;5048891;28;20075;-75
2022/01/06 04:35:02;;;;;;;10.27;3.72;;;;;;;14.62;77.96;101382.22;5048859;28;20044;-75
2022/01/06 04:37:30;;;;;;;9.93;5.03;;;;;;;14.62;77.56;101379.56;5048686;28;20049;-75
2022/01/06 04:39:58;;;;;;;11.60;5.10;;;;;;;14.60;77.40;101383.09;5047971;28;20501;-75
2022/01/06 04:42:26;;;;;;;8.82;4.25;;;;;;;14.60;77.29;101372.44;5048943;28;20149;-75
2022/01/06 04:44:54;;;;;;;10.10;3.33;;;;;;;14.57;76.99;101372.44;5048500;28;20544;-75
2022/01/06 04:47:21;;;;;;;10.23;3.42;;;;;;;14.54;76.59;101372.41;5048803;28;20459;-75
2022/01/06 04:49:51;;;;;;;9.88;3.90;;;;;;;14.54;76.59;101383.03;5046921;28;20099;-75
2022/01/06 04:52:18;;;;;;;7.60;2.75;;;;;;;14.51;76.37;101377.66;5047502;28;20048;-75
2022/01/06 04:54:46;;;;;;;9.15;5.28;;;;;;;14.52;75.60;101379.47;5047155;28;20067;-75
2022/01/06 04:57:14;;;;;;;9.43;3.40;;;;;;;14.52;75.08;101385.66;5046565;28;20052;-75
2022/01/06 04:59:42;;;;;;;6.88;3.10;;;;;;;14.51;74.19;101375.91;5047616;28;20535;-75
2022/01/06 05:02:09;;;;;;;13.63;8.32;;;;;;;14.51;73.69;101382.97;5046444;28;20070;-75
2022/01/06 05:04:37;;;;;;;16.55;9.90;;;;;;;14.51;73.46;101382.97;5062711;28;20604;-75
2022/01/06 05:07:07;;;;;;;13.50;7.13;;;;;;;14.51;73.20;101382.97;5049151;28;20037;-75
2022/01/06 05:09:35;;;;;;;9.40;4.53;;;;;;;14.44;72.76;101379.38;5063611;28;20045;-75
2022/01/06 05:12:02;;;;;;;10.43;4.57;;;;;;;14.44;72.66;101378.53;5048475;28;20053;-75
2022/01/06 05:14:30;;;;;;;6.65;3.15;;;;;;;14.42;72.61;101383.81;5046319;28;20128;-75
2022/01/06 05:16:59;;;;;;;5.38;2.50;;;;;;;14.39;72.29;101375.78;5050381;28;20127;-75
2022/01/06 05:19:27;;;;;;;7.07;2.65;;;;;;;14.44;71.82;101381.19;5051636;28;20049;-74
2022/01/06 05:21:55;;;;;;;4.72;2.30;;;;;;;14.44;71.40;101373.22;5050978;28;20123;-75
2022/01/06 05:24:24;;;;;;;6.55;2.30;;;;;;;14.50;71.02;101365.28;5051296;28;20037;-75
2022/01/06 05:26:54;;;;;;;4.47;2.22;;;;;;;14.58;70.34;101360.91;5052065;28;20060;-75
2022/01/06 05:29:22;;;;;;;4.38;1.70;;;;;;;14.72;69.84;101362.81;5052096;28;20041;-75
2022/01/06 05:31:49;;;;;;;4.43;1.35;;;;;;;14.88;69.26;101357.63;5051923;28;20043;-75
2022/01/06 05:34:17;;;;;;;4.38;1.83;;;;;;;14.97;69.18;101366.56;5051119;28;20057;-75
2022/01/06 05:36:45;;;;;;;4.78;1.70;;;;;;;14.99;69.34;101356.81;5050699;28;20041;-75
2022/01/06 05:39:13;;;;;;;4.55;2.40;;;;;;;15.10;69.31;101362.19;5052431;28;20090;-75
2022/01/06 05:41:45;;;;;;;6.82;2.05;;;;;;;15.16;69.17;101359.63;5050380;28;20040;-75
2022/01/06 05:44:12;;;;;;;6.78;1.98;;;;;;;15.16;69.17;101362.28;5051962;28;20057;-75
2022/01/06 05:46:40;;;;;;;4.70;2.22;;;;;;;15.23;69.36;101356.09;5051742;28;20068;-75
2022/01/06 05:49:07;;;;;;;3.25;1.48;;;;;;;15.22;69.60;101358.75;5051168;28;20051;-75
2022/01/06 05:51:35;;;;;;;5.93;2.10;;;;;;;15.23;69.87;101349.91;5037497;28;20049;-75
2022/01/06 05:54:03;;;;;;;5.32;2.60;;;;;;;15.24;70.10;101349.88;5050805;28;20374;-75
2022/01/06 05:56:31;;;;;;;4.38;2.22;;;;;;;15.22;70.34;101349.00;5051124;28;20515;-75
2022/01/06 05:59:00;;;;;;;4.88;2.00;;;;;;;15.25;70.83;101342.81;5051455;28;20064;-75
2022/01/06 06:01:29;;;;;;;5.75;2.15;;;;;;;15.26;71.17;101344.59;5050048;28;20065;-75
2022/01/06 06:03:57;;;;;;;5.00;2.60;;;;;;;15.26;71.46;101350.81;5050858;28;20082;-75
2022/01/06 06:06:24;;;;;;;4.32;2.28;;;;;;;15.31;71.65;101340.16;5031191;28;20386;-75
2022/01/06 06:08:52;;;;;;;7.13;1.67;;;;;;;15.32;72.09;101345.50;5050981;28;20489;-75
2022/01/06 06:11:19;;;;;;;8.00;2.33;;;;;;;15.32;72.24;101345.50;5049902;28;20061;-75
2022/01/06 06:13:47;;;;;;;8.32;2.47;;;;;;;15.32;72.36;101347.28;5050130;28;20120;-75
2022/01/06 06:16:16;;;;;;;7.07;2.33;;;;;;;15.34;72.58;101353.50;5049679;28;20057;-75
2022/01/06 06:18:44;;;;;;;7.40;2.13;;;;;;;15.34;72.74;101353.50;5050661;28;20045;-75
2022/01/06 06:21:11;;;;;;;4.47;2.40;;;;;;;15.36;72.98;101346.44;5049105;28;20198;-75
2022/01/06 06:23:39;;;;;;;5.20;2.50;;;;;;;15.42;72.90;101358.00;5050205;28;20090;-75
2022/01/06 06:26:06;;;;;;;10.48;3.03;;;;;;;15.58;73.20;101368.72;5050537;28;20170;-75
2022/01/06 06:28:34;;;;;;;6.95;2.25;;;;;;;15.76;73.11;101361.72;5051319;28;20121;-75
2022/01/06 06:31:02;;;;;;;8.02;3.10;;;;;;;15.80;72.96;101376.84;5049201;28;20072;-75
2022/01/06 06:33:31;;;;;;;5.65;2.50;;;;;;;15.79;72.94;101379.50;5051054;28;20049;-75
2022/01/06 06:35:59;;;;;;;4.28;1.80;;;;;;;15.92;72.86;101386.63;5051079;28;20390;-76
2022/01/06 06:38:27;;;;;;;5.40;2.58;;;;;;;16.03;72.57;101378.66;5065178;28;20102;-75
2022/01/06 06:40:54;;;;;;;5.32;2.20;;;;;;;16.08;72.10;101383.13;5050223;28;20134;-75
2022/01/06 06:43:22;;;;;;;6.20;2.22;;;;;;;16.05;71.92;101387.56;5050465;28;20043;-75
2022/01/06 06:45:49;;;;;;;4.50;2.08;;;;;;;16.13;71.67;101385.81;5049499;28;20501;-75
2022/01/06 06:48:17;;;;;;;4.22;1.50;;;;;;;16.42;71.23;101392.09;5048902;28;20102;-75
2022/01/06 06:50:46;;;;;;;10.88;2.50;;;;;;;16.74;70.12;101387.72;5048880;28;20114;-75
2022/01/06 06:53:14;;;;;;;4.78;1.85;;;;;;;17.03;68.42;101389.50;5052528;28;20091;-75
2022/01/06 06:55:42;;;;;;;3.53;1.85;;;;;;;17.29;67.72;101386.78;5049876;28;20033;-75
2022/01/06 06:58:10;;;;;;;3.13;1.10;;;;;;;17.52;66.56;101393.84;5048321;28;20103;-75
2022/01/06 07:00:37;;;;;;;2.00;1.30;;;;;;;17.73;65.96;101394.72;5050109;28;20045;-75
2022/01/06 07:03:05;;;;;;;5.20;1.75;;;;;;;17.96;65.75;101392.84;5050967;28;20037;-76
2022/01/06 07:05:33;;;;;;;3.38;1.70;;;;;;;18.11;65.09;101400.81;5049443;28;20055;-75
2022/01/06 07:08:02;;;;;;;4.78;1.55;;;;;;;18.31;64.68;101395.34;5048491;28;20049;-76
2022/01/06 07:10:30;;;;;;;4.10;1.40;;;;;;;18.44;64.17;101396.16;5048180;28;21733;-75
2022/01/06 07:12:57;;;;;;;6.30;2.28;;;;;;;18.49;62.59;101399.69;5049671;28;20041;-75
2022/01/06 07:15:27;;;;;;;5.10;1.50;;;;;;;18.57;61.75;101405.91;5047687;28;20045;-75
2022/01/06 07:17:54;;;;;;;4.32;1.67;;;;;;;18.76;61.73;101404.88;5047021;28;20048;-75
2022/01/06 07:20:23;;;;;;;3.33;1.80;;;;;;;19.01;61.56;101401.09;5048135;28;20037;-75
2022/01/06 07:22:51;;;;;;;5.15;1.73;;;;;;;19.20;60.91;101411.63;5048650;28;20049;-75
2022/01/06 07:25:21;;;;;;;3.80;1.40;;;;;;;19.35;59.54;101412.38;5050279;28;20501;-75
2022/01/06 07:27:48;;;;;;;4.85;1.67;;;;;;;19.45;59.25;101407.81;5050006;28;20094;-75
2022/01/06 07:30:16;;;;;;;3.95;1.67;;;;;;;19.20;57.33;101412.50;5049197;28;20455;-75
2022/01/06 07:32:46;;;;;;;4.80;1.90;;;;;;;18.82;57.36;101417.31;5064386;28;20501;-75
2022/01/06 07:35:14;;;;;;;2.38;1.23;;;;;;;18.96;57.93;101424.34;5049553;28;20436;-76
2022/01/06 07:37:42;;;;;;;2.05;1.35;;;;;;;19.17;57.66;101420.56;5049923;28;20051;-75
2022/01/06 07:40:12;;;;;;;3.80;1.95;;;;;;;19.12;56.62;101419.72;5048115;28;20044;-75
2022/01/06 07:42:41;;;;;;;2.08;1.40;;;;;;;18.90;56.86;101410.13;5049380;28;20033;-75
2022/01/06 07:45:09;;;;;;;4.38;1.42;;;;;;;18.53;56.65;101413.00;5029901;28;20042;-75
2022/01/06 07:47:53;;;;;;;3.22;1.50;;;;;;;18.41;57.38;101414.88;5028698;28;20120;-75
2022/01/06 07:50:21;;;;;;;3.35;1.70;;;;;;;18.76;56.61;101404.88;5014678;28;20102;-75
2022/01/06 07:52:49;;;;;;;6.22;2.08;;;;;;;19.12;56.02;101411.69;5030213;28;20045;-74
2022/01/06 07:55:17;;;;;;;4.82;1.63;;;;;;;19.41;54.27;101412.31;5031495;28;20090;-75
2022/01/06 07:57:46;;;;;;;5.38;1.50;;;;;;;19.67;53.71;101412.06;5048875;28;20064;-75
2022/01/06 08:00:15;;;;;;;2.72;1.27;;;;;;;19.92;53.77;101417.13;5049783;28;20045;-76
2022/01/06 08:02:42;;;;;;;2.00;1.38;;;;;;;19.96;52.45;101411.69;5047794;28;20044;-75
2022/01/06 08:05:12;;;;;;;3.90;1.60;;;;;;;19.89;51.46;101416.25;5041072;28;20537;-76
2022/01/06 08:07:40;;;;;;;3.95;1.83;;;;;;;20.03;51.46;101412.50;5049908;28;20057;-75
2022/01/06 08:10:09;;;;;;;3.20;1.52;;;;;;;20.23;51.39;101422.06;5048084;28;20124;-76
2022/01/06 08:12:37;;;;;;;4.00;1.60;;;;;;;20.34;49.97;101410.34;5048353;28;20386;-75
2022/01/06 08:15:08;;;;;;;3.35;1.27;;;;;;;20.41;50.27;101412.06;5048592;28;20060;-75
2022/01/06 08:17:37;;;;;;;2.92;1.52;;;;;;;20.57;50.31;101408.22;5049486;28;20041;-75
2022/01/06 08:20:05;;;;;;;3.05;1.00;;;;;;;20.56;49.26;101399.28;5049324;28;20052;-75
2022/01/06 08:22:35;;;;;;;2.30;1.40;;;;;;;20.59;49.42;101393.88;5047918;28;20515;-75
2022/01/06 08:25:03;;;;;;;3.00;1.52;;;;;;;20.67;49.61;101399.13;5047453;28;20059;-75
2022/01/06 08:27:31;;;;;;;2.78;1.08;;;;;;;20.66;50.02;101390.19;5049710;28;20116;-75
2022/01/06 08:29:58;;;;;;;2.10;0.80;;;;;;;20.69;49.71;101386.56;5048011;28;20091;-75
2022/01/06 08:32:28;;;;;;;5.03;1.33;;;;;;;20.71;49.48;101392.78;5014483;28;20083;-75
2022/01/06 08:34:55;;;;;;;3.33;1.52;;;;;;;20.87;49.46;101388.94;5065007;28;20060;-75
2022/01/06 08:37:23;;;;;;;3.72;1.70;;;;;;;21.12;49.08;101389.41;5049194;28;20120;-76
2022/01/06 08:39:50;;;;;;;3.63;1.20;;;;;;;21.11;48.46;101384.94;5047592;28;20562;-75
2022/01/06 08:42:18;;;;;;;3.20;1.27;;;;;;;21.06;48.63;101384.16;5049091;28;20471;-75
2022/01/06 08:44:45;;;;;;;4.53;1.38;;;;;;;21.21;48.50;101378.53;5049008;28;20069;-75
2022/01/06 08:47:13;;;;;;;2.42;1.00;;;;;;;20.98;48.71;101383.41;5049057;28;20112;-75
2022/01/06 08:49:43;;;;;;;3.08;1.42;;;;;;;20.54;49.40;101378.75;5049223;28;20670;-74
2022/01/06 08:52:10;;;;;;;4.05;1.33;;;;;;;20.14;49.63;101387.34;5050925;28;20047;-76
2022/01/06 08:54:38;;;;;;;3.67;1.77;;;;;;;19.82;50.04;101377.03;5051971;28;20124;-75
2022/01/06 08:57:06;;;;;;;2.67;1.35;;;;;;;19.54;49.69;101372.03;5052513;28;20434;-75
2022/01/06 08:59:34;;;;;;;4.45;1.40;;;;;;;19.44;50.51;101387.28;5051772;28;20120;-75
2022/01/06 09:02:01;;;;;;;3.28;0.95;;;;;;;19.28;51.20;101385.69;5052911;28;20488;-75
2022/01/06 09:04:29;;;;;;;1.85;1.10;;;;;;;19.04;51.62;101374.28;5053265;28;20037;-75
2022/01/06 09:06:58;;;;;;;4.18;1.58;;;;;;;18.92;51.96;101386.88;5052483;28;20105;-74
2022/01/06 09:09:27;;;;;;;5.28;1.30;;;;;;;18.82;52.88;101378.06;5053177;28;20041;-75
2022/01/06 09:11:55;;;;;;;4.50;1.08;;;;;;;18.87;53.51;101384.25;5053341;28;20041;-76
2022/01/06 09:14:24;;;;;;;5.75;1.63;;;;;;;18.98;53.88;101381.47;5050123;28;20049;-75
2022/01/06 09:16:53;;;;;;;3.17;1.05;;;;;;;18.97;54.32;101366.34;5050582;28;20452;-74
2022/01/06 09:19:21;;;;;;;5.95;1.77;;;;;;;19.01;54.72;101368.97;5052294;28;20095;-75
2022/01/06 09:21:49;;;;;;;4.05;1.25;;;;;;;19.01;55.48;101370.75;5050499;28;20065;-74
2022/01/06 09:24:19;;;;;;;3.05;1.20;;;;;;;19.00;55.95;101361.84;5048726;28;20044;-75
2022/01/06 09:26:47;;;;;;;5.57;1.58;;;;;;;18.94;56.46;101361.00;5049201;28;20049;-75
2022/01/06 09:29:14;;;;;;;5.60;1.40;;;;;;;18.91;56.61;101361.91;5050549;28;20099;-75
2022/01/06 09:31:43;;;;;;;2.63;1.02;;;;;;;18.88;56.86;101359.28;5051175;28;20382;-75
2022/01/06 09:34:11;;;;;;;4.32;0.90;;;;;;;18.87;57.10;101354.84;5031853;28;20065;-75
2022/01/06 09:36:41;;;;;;;4.70;1.40;;;;;;;18.93;56.76;101353.88;5041189;28;20045;-75
2022/01/06 09:39:10;;;;;;;2.60;0.95;;;;;;;18.87;55.75;101348.59;5047884;28;20695;-75
2022/01/06 09:41:40;;;;;;;4.85;1.88;;;;;;;18.79;55.41;101343.31;5051224;28;20048;-75
2022/01/06 09:44:07;;;;;;;5.38;1.08;;;;;;;18.76;55.64;101348.69;5050465;28;20072;-75
2022/01/06 09:46:36;;;;;;;3.17;1.50;;;;;;;18.78;56.38;101349.56;5052684;28;20055;-75
2022/01/06 09:49:03;;;;;;;7.35;1.40;;;;;;;18.81;57.12;101333.47;5049330;28;20037;-75
2022/01/06 09:51:32;;;;;;;4.00;1.20;;;;;;;18.75;58.00;101333.53;5049050;28;20060;-77
2022/01/06 09:54:02;;;;;;;3.05;1.65;;;;;;;18.75;58.61;101324.63;5052003;28;20052;-75
2022/01/06 09:56:30;;;;;;;6.25;2.03;;;;;;;18.82;58.97;101329.03;5050547;28;20401;-75
2022/01/06 09:58:59;;;;;;;7.63;2.30;;;;;;;18.90;59.39;101328.06;5051423;28;20041;-76
2022/01/06 10:01:27;;;;;;;5.28;1.48;;;;;;;18.97;59.46;101318.19;5050246;28;20116;-75
2022/01/06 10:03:55;;;;;;;6.30;1.40;;;;;;;19.00;59.31;101326.16;5048727;28;20037;-75
2022/01/06 10:06:25;;;;;;;4.60;1.60;;;;;;;19.05;59.58;101327.00;5056403;28;20141;-75
2022/01/06 10:08:55;;;;;;;4.15;1.40;;;;;;;19.08;59.68;101333.22;5051675;28;20286;-75
2022/01/06 10:11:25;;;;;;;6.53;1.65;;;;;;;19.01;60.00;101323.47;5064093;28;20080;-75
2022/01/06 10:14:03;;;;;;;3.28;1.60;;;;;;;18.96;60.02;101322.66;5051900;28;20049;-75
2022/01/06 10:16:31;;;;;;;4.32;1.67;;;;;;;19.04;59.60;101319.88;5049056;28;20129;-75
2022/01/06 10:19:04;;;;;;;8.15;1.92;;;;;;;19.14;59.25;101326.03;5048357;28;20416;-76
2022/01/06 10:21:36;;;;;;;7.22;1.75;;;;;;;19.21;58.90;101317.03;5064534;28;20048;-74
2022/01/06 10:24:08;;;;;;;5.97;1.90;;;;;;;19.30;58.15;101314.22;5048593;28;20041;-75
2022/01/06 10:26:37;;;;;;;4.25;1.40;;;;;;;19.27;57.71;101307.16;5050810;28;20101;-75
2022/01/06 10:29:09;;;;;;;6.28;1.92;;;;;;;19.34;57.55;101310.63;5043768;28;20139;-76
2022/01/06 10:31:36;;;;;;;5.63;1.90;;;;;;;19.46;56.98;101303.38;5049722;28;20044;-75
2022/01/06 10:34:11;;;;;;;5.65;1.75;;;;;;;19.57;56.62;101303.22;5049676;28;20132;-75
2022/01/06 10:36:39;;;;;;;6.07;1.52;;;;;;;19.70;56.03;101296.81;5048396;28;20037;-75
2022/01/06 10:39:08;;;;;;;4.63;1.70;;;;;;;20.05;55.67;101292.75;5046730;28;20047;-75
2022/01/06 10:41:38;;;;;;;4.90;1.73;;;;;;;20.31;54.75;101298.59;5042963;28;20045;-75
2022/01/06 10:44:11;;;;;;;5.18;2.20;;;;;;;20.45;54.61;101310.03;5055748;28;20124;-75
2022/01/06 10:46:41;;;;;;;3.67;1.45;;;;;;;20.54;54.11;101288.44;5034527;28;20102;-75
2022/01/06 10:49:11;;;;;;;4.70;1.88;;;;;;;20.40;54.35;101295.81;5046996;28;20073;-75
2022/01/06 10:51:44;;;;;;;8.05;2.10;;;;;;;20.38;55.10;101294.94;5044323;28;20124;-75
2022/01/06 10:54:21;;;;;;;3.65;1.40;;;;;;;20.55;55.17;101290.19;5045388;28;20135;-75
2022/01/06 10:57:00;;;;;;;4.90;1.63;;;;;;;20.63;54.10;101287.38;5044939;28;20049;-75
2022/01/06 10:59:33;;;;;;;6.55;2.08;;;;;;;20.66;54.49;101279.28;5037386;28;20041;-75
2022/01/06 11:02:01;;;;;;;6.10;1.70;;;;;;;20.55;54.44;101279.44;5016484;28;20120;-76
2022/01/06 11:04:30;;;;;;;8.13;1.70;;;;;;;20.44;54.41;101283.22;5028847;28;20113;-76
2022/01/06 11:06:58;;;;;;;5.60;1.70;;;;;;;20.25;54.61;101282.63;5044413;28;20061;-75
2022/01/06 11:09:29;;;;;;;4.35;1.50;;;;;;;20.03;54.43;101265.97;5044869;28;20428;-75
2022/01/06 11:14:46;;;;;;;3.63;1.50;;;;;;;19.76;54.65;101264.56;5042888;28;20128;-74
2022/01/06 11:17:14;;;;;;;4.47;1.58;;;;;;;19.70;54.89;101271.81;5039673;28;20064;-74
2022/01/06 11:19:42;;;;;;;6.07;2.03;;;;;;;19.67;54.52;101259.34;5036726;28;20041;-74
2022/01/06 11:22:13;;;;;;;5.00;1.60;;;;;;;19.70;54.66;101240.53;5049069;28;20400;-74
2022/01/06 11:24:41;;;;;;;7.43;1.58;;;;;;;19.96;54.71;101260.72;5049483;28;20094;-74
2022/01/06 11:27:10;;;;;;;5.05;1.83;;;;;;;20.20;54.75;101253.19;5033829;28;20509;-74
2022/01/06 11:29:41;;;;;;;7.85;1.60;;;;;;;20.40;53.66;101247.53;5048820;28;20126;-74
2022/01/06 11:32:21;;;;;;;5.43;1.50;;;;;;;20.61;53.82;101230.19;5039483;28;20037;-74
2022/01/06 11:34:52;;;;;;;5.18;1.65;;;;;;;20.59;53.27;101242.75;5049427;28;20049;-74
2022/01/06 11:37:19;;;;;;;4.82;1.75;;;;;;;20.53;53.26;101237.47;5049452;28;20140;-74